Bel Marin Keyes, California
Current Conditions -  °F | °C
As of 6:15 AM on Sunday 21 Dec 2014 (Local Time) from KDVO Reporting Station
Broken Clouds Broken Clouds  
Wind Chill: 57°   Ceiling: 3600
Heat Index: 57°   Visibility: 10mi
Dew Point: 57°   Wind: 3mph
Humidity: 100%   Direction: 150°SSE
Pressure: 30.27"   Gusts: NA
Location:  38.0639°N, 122.532°W
Report Text: KDVO 211415Z AUTO 15003KT 10SM SCT014 BKN036 BKN045 14/14 A3027 RMK AO2
Loading
Personal Weather Stations






























Interactive Weather Map New forecast layout! Learn more

10-Day Weather Forecast

Advertisements
Track Severe Weather on mobile